Time;durP1;ratioP1;P1;durP2;ratioP2;P2;SDS_P1;SDS_P2;PMS_P1;PMS_P2;Temp;Humidity;BMP_temperature;BMP_pressure;BME280_temperature;BME280_humidity;BME280_pressure;Samples;Min_cycle;Max_cycle;Signal;HPM_P1;HPM_P2
2023/05/21 00:01:35;;;;;;;5.20;4.70;;;20.60;64.40;;;;;;4950006;28;20451;-72
2023/05/21 00:04:05;;;;;;;5.67;4.03;;;20.60;64.40;;;;;;4949364;28;20522;-72
2023/05/21 00:06:34;;;;;;;8.93;4.60;;;20.60;64.50;;;;;;4958502;28;20496;-72
2023/05/21 00:09:03;;;;;;;4.30;3.87;;;20.60;64.40;;;;;;4948661;28;20885;-71
2023/05/21 00:11:32;;;;;;;4.67;4.03;;;20.60;64.40;;;;;;4947844;28;20937;-73
2023/05/21 00:14:00;;;;;;;4.70;4.30;;;20.60;64.40;;;;;;4942027;28;20936;-72
2023/05/21 00:16:30;;;;;;;4.27;3.97;;;20.50;64.40;;;;;;4947659;28;20945;-72
2023/05/21 00:18:59;;;;;;;4.90;4.13;;;20.50;64.30;;;;;;4946620;28;20507;-72
2023/05/21 00:21:28;;;;;;;4.40;4.00;;;20.50;64.30;;;;;;4939919;28;20447;-72
2023/05/21 00:23:57;;;;;;;5.13;4.63;;;20.50;64.30;;;;;;4945694;28;21000;-72
2023/05/21 00:26:25;;;;;;;4.53;3.87;;;20.50;64.40;;;;;;4946361;28;20801;-72
2023/05/21 00:28:57;;;;;;;4.63;4.23;;;20.50;64.30;;;;;;4945326;28;20607;-72
2023/05/21 00:31:25;;;;;;;4.63;4.13;;;20.50;64.40;;;;;;4947331;28;20436;-72
2023/05/21 00:33:55;;;;;;;4.40;4.00;;;20.50;64.30;;;;;;4970469;28;20484;-73
2023/05/21 00:36:24;;;;;;;3.87;3.50;;;20.50;64.30;;;;;;4939327;28;20452;-73
2023/05/21 00:38:52;;;;;;;5.10;4.60;;;20.50;64.30;;;;;;4942470;28;20448;-73
2023/05/21 00:41:21;;;;;;;4.57;4.17;;;20.50;64.30;;;;;;4948847;28;20452;-72
2023/05/21 00:43:51;;;;;;;4.47;4.07;;;20.50;64.40;;;;;;4953127;28;20444;-73
2023/05/21 00:46:21;;;;;;;4.80;4.30;;;20.50;64.40;;;;;;4960389;28;20821;-72
2023/05/21 00:48:50;;;;;;;4.93;4.43;;;20.50;64.30;;;;;;4946629;28;20476;-72
2023/05/21 00:51:20;;;;;;;4.87;4.37;;;20.50;64.30;;;;;;4942345;28;20458;-72
2023/05/21 00:53:51;;;;;;;4.20;3.80;;;20.50;64.40;;;;;;4958920;28;20471;-72
2023/05/21 00:56:20;;;;;;;4.47;4.07;;;20.50;65.60;;;;;;4955107;28;20479;-73
2023/05/21 00:58:50;;;;;;;4.80;4.30;;;20.50;64.40;;;;;;4943282;29;20452;-72
2023/05/21 01:01:19;;;;;;;5.63;5.13;;;20.50;64.30;;;;;;4946536;28;20976;-72
2023/05/21 01:03:48;;;;;;;3.77;3.47;;;20.50;64.40;;;;;;4946732;28;20487;-73
2023/05/21 01:06:16;;;;;;;4.30;3.90;;;20.50;64.30;;;;;;4945517;28;20815;-72
2023/05/21 01:08:46;;;;;;;4.30;3.90;;;20.50;64.40;;;;;;4948563;28;21017;-72
2023/05/21 01:11:16;;;;;;;4.97;4.53;;;20.50;64.30;;;;;;4946348;28;20463;-73
2023/05/21 01:13:46;;;;;;;4.43;4.00;;;20.50;64.30;;;;;;4951843;28;20530;-72
2023/05/21 01:16:16;;;;;;;3.63;3.30;;;20.50;64.40;;;;;;4959667;28;20557;-73
2023/05/21 01:18:45;;;;;;;4.60;3.87;;;20.50;64.30;;;;;;4945581;28;20551;-72
2023/05/21 01:21:16;;;;;;;5.00;4.60;;;20.50;64.30;;;;;;4945305;28;20494;-73
2023/05/21 01:23:46;;;;;;;4.77;4.37;;;20.50;64.40;;;;;;4946745;28;20514;-72
2023/05/21 01:26:14;;;;;;;4.33;3.93;;;20.40;64.20;;;;;;4949032;28;20451;-72
2023/05/21 01:28:43;;;;;;;5.70;5.10;;;20.40;64.20;;;;;;4948480;28;20471;-72
2023/05/21 01:31:22;;;;;;;4.20;3.80;;;20.50;64.40;;;;;;4943338;28;20456;-72
2023/05/21 01:33:53;;;;;;;4.03;3.63;;;20.40;64.50;;;;;;4951800;28;20818;-71
2023/05/21 01:36:25;;;;;;;4.93;4.43;;;20.40;64.70;;;;;;4948584;28;20598;-72
2023/05/21 01:39:01;;;;;;;5.27;4.43;;;20.40;64.70;;;;;;4957175;28;20463;-72
2023/05/21 01:41:34;;;;;;;4.57;4.17;;;20.40;64.30;;;;;;4942617;28;21022;-71
2023/05/21 01:44:07;;;;;;;3.53;3.23;;;20.40;64.40;;;;;;4945612;28;20486;-73
2023/05/21 01:46:35;;;;;;;4.70;4.20;;;20.40;64.90;;;;;;4945452;28;20447;-73
2023/05/21 01:49:05;;;;;;;4.77;4.37;;;20.40;64.80;;;;;;4949892;28;20475;-72
2023/05/21 01:51:35;;;;;;;4.60;3.73;;;20.40;65.00;;;;;;4942423;29;20861;-73
2023/05/21 01:54:05;;;;;;;4.20;3.80;;;20.40;64.90;;;;;;4948748;28;20474;-72
2023/05/21 01:56:35;;;;;;;3.87;3.47;;;20.40;65.10;;;;;;4953982;28;20458;-72
2023/05/21 01:59:04;;;;;;;5.43;4.73;;;20.40;65.10;;;;;;4945389;28;20528;-73
2023/05/21 02:01:33;;;;;;;4.33;3.93;;;20.40;65.10;;;;;;4958704;28;20562;-73
2023/05/21 02:04:01;;;;;;;5.00;4.40;;;20.40;65.20;;;;;;4959441;28;20483;-72
2023/05/21 02:06:30;;;;;;;6.10;5.17;;;20.40;65.20;;;;;;4955158;28;20543;-72
2023/05/21 02:08:59;;;;;;;4.93;4.43;;;20.40;64.90;;;;;;4956306;28;20520;-72
2023/05/21 02:11:28;;;;;;;4.90;4.40;;;20.40;65.00;;;;;;4955528;28;20458;-71
2023/05/21 02:13:57;;;;;;;5.17;4.57;;;20.40;64.90;;;;;;4963636;28;20475;-72
2023/05/21 02:16:25;;;;;;;4.93;4.40;;;20.40;65.00;;;;;;4950234;28;20448;-73
2023/05/21 02:18:56;;;;;;;5.57;3.77;;;20.40;64.90;;;;;;4960420;28;20787;-72
2023/05/21 02:21:24;;;;;;;3.80;3.50;;;20.40;65.10;;;;;;4945682;28;20463;-73
2023/05/21 02:23:53;;;;;;;4.37;3.97;;;20.40;65.10;;;;;;4951208;28;20511;-73
2023/05/21 02:26:22;;;;;;;3.90;3.50;;;20.40;65.20;;;;;;4952455;28;20444;-73
2023/05/21 02:28:52;;;;;;;5.20;4.73;;;20.40;65.20;;;;;;4944847;28;20464;-72
2023/05/21 02:31:21;;;;;;;5.57;4.17;;;20.40;65.10;;;;;;4958893;28;20543;-72
2023/05/21 02:33:49;;;;;;;5.60;5.10;;;20.40;65.10;;;;;;4950758;28;20575;-72
2023/05/21 02:36:18;;;;;;;4.40;4.00;;;20.30;65.00;;;;;;4930419;28;20518;-73
2023/05/21 02:38:47;;;;;;;4.43;3.87;;;20.40;65.30;;;;;;4960105;28;20503;-72
2023/05/21 02:41:15;;;;;;;5.10;4.60;;;20.30;65.30;;;;;;4950459;28;20444;-72
2023/05/21 02:43:43;;;;;;;6.00;4.80;;;20.30;65.20;;;;;;4943850;28;20479;-73
2023/05/21 02:46:13;;;;;;;5.30;4.70;;;20.30;65.20;;;;;;4950837;28;20874;-73
2023/05/21 02:48:42;;;;;;;4.40;4.00;;;20.30;65.20;;;;;;4951968;28;20550;-72
2023/05/21 02:51:10;;;;;;;5.10;4.60;;;20.30;65.30;;;;;;4948583;28;20459;-72
2023/05/21 02:53:39;;;;;;;4.30;3.90;;;20.30;65.30;;;;;;4951083;28;20515;-72
2023/05/21 02:56:08;;;;;;;4.30;3.90;;;20.30;65.50;;;;;;4948780;28;20456;-72
2023/05/21 02:58:36;;;;;;;5.57;5.07;;;20.30;65.60;;;;;;4954038;28;20958;-73
2023/05/21 03:01:04;;;;;;;4.57;4.17;;;20.30;65.50;;;;;;4964694;28;20483;-72
2023/05/21 03:03:35;;;;;;;4.80;4.40;;;20.30;65.60;;;;;;4948645;28;20984;-72
2023/05/21 03:06:04;;;;;;;6.27;4.53;;;20.30;65.50;;;;;;4948036;28;20467;-72
2023/05/21 03:08:32;;;;;;;6.30;4.73;;;20.30;65.60;;;;;;4949811;29;20546;-72
2023/05/21 03:11:00;;;;;;;6.00;5.47;;;20.30;65.40;;;;;;4948110;28;20459;-72
2023/05/21 03:13:29;;;;;;;5.60;4.80;;;20.30;65.50;;;;;;4953099;28;20507;-73
2023/05/21 03:15:57;;;;;;;4.93;4.43;;;20.30;65.60;;;;;;4941072;28;20552;-73
2023/05/21 03:18:26;;;;;;;4.83;4.33;;;20.30;65.50;;;;;;4949684;29;20432;-72
2023/05/21 03:20:57;;;;;;;4.37;3.90;;;20.30;65.40;;;;;;4940627;28;20452;-72
2023/05/21 03:23:26;;;;;;;6.10;4.47;;;20.30;65.50;;;;;;4956066;28;20527;-72
2023/05/21 03:25:54;;;;;;;4.83;4.27;;;20.20;65.20;;;;;;4956871;28;20515;-73
2023/05/21 03:28:23;;;;;;;6.43;4.77;;;20.30;65.50;;;;;;4944074;28;20809;-73
2023/05/21 03:30:52;;;;;;;6.20;5.07;;;20.20;65.30;;;;;;4953743;28;20439;-73
2023/05/21 03:33:39;;;;;;;5.73;4.60;;;20.20;65.30;;;;;;4935902;28;21024;-72
2023/05/21 03:36:21;;;;;;;5.10;4.60;;;20.20;65.40;;;;;;4942675;28;20448;-72
2023/05/21 03:38:50;;;;;;;4.60;4.20;;;20.20;65.40;;;;;;4954196;28;20570;-72
2023/05/21 03:41:20;;;;;;;6.73;4.00;;;20.20;65.60;;;;;;4948899;28;20440;-72
2023/05/21 03:43:52;;;;;;;5.17;4.67;;;20.20;65.60;;;;;;4945535;28;21097;-72
2023/05/21 03:46:25;;;;;;;5.37;4.60;;;20.20;65.70;;;;;;4958135;28;20432;-72
2023/05/21 03:49:20;;;;;;;6.80;5.30;;;20.20;65.40;;;;;;4944868;28;20476;-73
2023/05/21 03:51:53;;;;;;;5.57;5.07;;;20.20;65.30;;;;;;4964761;28;20517;-72
2023/05/21 03:54:22;;;;;;;6.50;5.00;;;20.20;65.30;;;;;;4943916;28;20472;-73
2023/05/21 03:56:53;;;;;;;5.00;4.20;;;20.20;65.40;;;;;;4948549;28;20796;-73
2023/05/21 03:59:25;;;;;;;5.20;4.27;;;20.20;65.50;;;;;;4943765;28;20443;-73
2023/05/21 04:01:53;;;;;;;4.80;4.00;;;20.20;65.50;;;;;;4948433;28;20886;-72
2023/05/21 04:04:22;;;;;;;5.63;4.67;;;20.20;65.60;;;;;;4948260;28;20475;-73
2023/05/21 04:06:54;;;;;;;7.50;5.60;;;20.20;65.60;;;;;;4960262;28;20435;-67
2023/05/21 04:09:23;;;;;;;4.90;4.40;;;20.20;65.70;;;;;;4943060;28;20468;-68
2023/05/21 04:11:52;;;;;;;4.90;3.90;;;20.10;65.70;;;;;;4948686;28;20454;-67
2023/05/21 04:14:21;;;;;;;5.60;5.10;;;20.10;65.60;;;;;;4942647;28;20476;-67
2023/05/21 04:16:51;;;;;;;5.30;4.80;;;20.20;65.70;;;;;;4947414;28;20964;-66
2023/05/21 04:19:21;;;;;;;4.30;3.90;;;20.10;65.70;;;;;;4943749;28;20484;-67
2023/05/21 04:21:50;;;;;;;5.77;4.60;;;20.10;65.70;;;;;;4958294;28;20811;-67
2023/05/21 04:24:21;;;;;;;5.87;5.30;;;20.10;65.70;;;;;;4947366;28;21013;-66
2023/05/21 04:27:00;;;;;;;4.93;4.50;;;20.10;65.70;;;;;;4944343;28;20466;-68
2023/05/21 04:29:30;;;;;;;5.90;4.93;;;20.10;65.70;;;;;;4923229;29;20480;-67
2023/05/21 04:31:59;;;;;;;8.53;6.10;;;20.10;65.70;;;;;;4963424;28;20483;-66
2023/05/21 04:34:28;;;;;;;5.30;4.80;;;20.10;65.70;;;;;;4943055;28;21144;-68
2023/05/21 04:36:57;;;;;;;5.30;4.80;;;20.10;65.80;;;;;;4959951;28;20443;-66
2023/05/21 04:39:27;;;;;;;4.13;3.80;;;20.10;65.80;;;;;;4943499;28;20610;-68
2023/05/21 04:41:57;;;;;;;5.87;4.80;;;20.10;65.80;;;;;;4955430;28;20464;-68
2023/05/21 04:44:26;;;;;;;5.03;4.53;;;20.10;65.80;;;;;;4954673;28;20468;-65
2023/05/21 04:46:56;;;;;;;4.53;4.13;;;20.10;65.80;;;;;;4963014;28;20487;-67
2023/05/21 04:49:25;;;;;;;5.43;4.93;;;20.10;66.00;;;;;;4943095;28;21214;-68
2023/05/21 04:51:54;;;;;;;5.03;4.53;;;20.10;65.90;;;;;;4959650;28;21034;-69
2023/05/21 04:54:22;;;;;;;5.17;4.67;;;20.10;65.90;;;;;;4946783;28;20470;-66
2023/05/21 04:56:52;;;;;;;5.80;5.23;;;20.10;66.00;;;;;;4951018;28;20428;-68
2023/05/21 04:59:21;;;;;;;4.80;4.30;;;20.10;65.90;;;;;;4945245;28;20484;-68
2023/05/21 05:01:50;;;;;;;5.73;5.20;;;20.00;65.80;;;;;;4950365;28;20451;-68
2023/05/21 05:04:18;;;;;;;5.20;4.70;;;20.00;65.80;;;;;;4946879;28;20460;-68
2023/05/21 05:06:47;;;;;;;4.53;4.10;;;20.00;65.80;;;;;;4959102;28;20475;-67
2023/05/21 05:09:15;;;;;;;5.07;4.60;;;20.00;65.80;;;;;;4967679;28;20439;-68
2023/05/21 05:11:45;;;;;;;4.90;4.20;;;20.00;65.80;;;;;;4945514;28;20463;-67
2023/05/21 05:14:15;;;;;;;4.80;4.40;;;20.00;65.80;;;;;;4948805;28;21024;-68
2023/05/21 05:16:46;;;;;;;5.10;3.93;;;20.00;66.00;;;;;;4949950;28;20503;-68
2023/05/21 05:19:16;;;;;;;5.87;5.37;;;20.00;66.10;;;;;;4949259;28;20460;-67
2023/05/21 05:21:44;;;;;;;5.27;4.77;;;20.00;66.00;;;;;;4950817;28;20444;-67
2023/05/21 05:24:13;;;;;;;7.37;5.20;;;20.00;66.00;;;;;;4950328;28;20587;-67
2023/05/21 05:26:41;;;;;;;4.40;4.00;;;20.00;66.10;;;;;;4950226;28;20495;-67
2023/05/21 05:29:10;;;;;;;4.63;4.17;;;20.00;66.30;;;;;;4949879;28;20546;-67
2023/05/21 05:31:40;;;;;;;4.93;4.40;;;20.00;66.30;;;;;;4956402;28;20474;-67
2023/05/21 05:34:09;;;;;;;5.77;5.10;;;20.00;66.40;;;;;;4947284;28;20567;-67
2023/05/21 05:36:38;;;;;;;5.43;4.93;;;20.00;66.30;;;;;;4942765;28;20484;-67
2023/05/21 05:39:07;;;;;;;5.20;4.37;;;20.00;66.40;;;;;;4961340;28;20448;-68
2023/05/21 05:41:36;;;;;;;6.73;4.60;;;20.00;66.30;;;;;;4946093;28;20523;-66
2023/05/21 05:44:05;;;;;;;4.93;4.47;;;20.00;66.30;;;;;;4945366;28;20857;-66
2023/05/21 05:46:37;;;;;;;4.40;3.90;;;20.00;66.30;;;;;;4953573;28;20431;-67
2023/05/21 05:49:07;;;;;;;5.47;4.90;;;20.00;66.30;;;;;;4949915;28;20841;-67
2023/05/21 05:51:36;;;;;;;4.77;4.37;;;20.00;66.20;;;;;;4945251;28;20482;-67
2023/05/21 05:54:05;;;;;;;5.70;5.20;;;20.00;66.30;;;;;;4948405;28;20872;-67
2023/05/21 05:56:34;;;;;;;6.73;4.30;;;20.00;66.30;;;;;;4954291;28;20435;-68
2023/05/21 05:59:04;;;;;;;5.00;4.43;;;20.00;66.40;;;;;;4946162;28;20465;-66
2023/05/21 06:01:36;;;;;;;5.23;4.73;;;20.00;66.40;;;;;;4943829;28;20537;-68
2023/05/21 06:04:05;;;;;;;5.40;4.90;;;20.00;66.30;;;;;;4947852;28;20468;-68
2023/05/21 06:06:35;;;;;;;4.97;4.47;;;20.00;66.50;;;;;;4943427;28;20826;-66
2023/05/21 06:09:04;;;;;;;4.23;3.70;;;20.00;66.40;;;;;;4950824;28;20475;-67
2023/05/21 06:11:32;;;;;;;6.40;4.90;;;20.00;66.40;;;;;;4948356;28;20491;-65
2023/05/21 06:14:01;;;;;;;5.30;4.80;;;20.00;66.40;;;;;;4952385;28;20707;-67
2023/05/21 06:16:30;;;;;;;5.80;5.20;;;20.00;66.50;;;;;;4953846;28;20444;-67
2023/05/21 06:18:59;;;;;;;5.00;4.50;;;20.00;66.60;;;;;;4973414;28;20839;-68
2023/05/21 06:21:27;;;;;;;5.03;4.50;;;20.00;66.50;;;;;;4941473;28;20960;-66
2023/05/21 06:23:57;;;;;;;4.47;4.07;;;20.00;66.60;;;;;;4949446;28;21011;-68
2023/05/21 06:26:26;;;;;;;4.37;3.97;;;20.00;66.50;;;;;;4945566;28;20484;-67
2023/05/21 06:28:55;;;;;;;4.50;4.03;;;20.00;66.60;;;;;;4946884;28;20447;-67
2023/05/21 06:31:24;;;;;;;3.63;3.33;;;20.00;66.60;;;;;;4941715;28;20473;-68
2023/05/21 06:33:52;;;;;;;4.00;3.60;;;20.00;66.70;;;;;;4948013;28;20483;-68
2023/05/21 06:36:24;;;;;;;3.67;3.37;;;20.00;66.70;;;;;;4939463;28;20528;-66
2023/05/21 06:38:53;;;;;;;4.73;3.93;;;20.00;66.70;;;;;;4931550;29;20887;-67
2023/05/21 06:41:23;;;;;;;4.50;4.10;;;20.00;66.90;;;;;;4965754;28;20567;-68
2023/05/21 06:43:55;;;;;;;6.57;4.80;;;20.00;66.70;;;;;;4947238;28;20476;-67
2023/05/21 06:46:59;;;;;;;4.70;4.20;;;20.00;66.50;;;;;;4940822;29;20579;-67
2023/05/21 06:49:27;;;;;;;4.47;4.07;;;20.00;66.50;;;;;;4945775;28;21206;-68
2023/05/21 06:51:56;;;;;;;5.13;4.43;;;20.00;66.60;;;;;;4950999;28;20491;-67
2023/05/21 06:54:24;;;;;;;5.53;4.40;;;20.00;66.50;;;;;;4949297;28;20468;-67
2023/05/21 06:56:56;;;;;;;5.53;4.20;;;20.00;66.30;;;;;;4948656;28;20480;-66
2023/05/21 06:59:25;;;;;;;4.90;4.50;;;20.00;66.60;;;;;;4944241;28;21721;-68
2023/05/21 07:01:54;;;;;;;5.07;4.57;;;20.00;66.60;;;;;;4962919;28;20436;-67
2023/05/21 07:04:23;;;;;;;4.80;4.30;;;20.00;66.50;;;;;;4946829;28;20476;-67
2023/05/21 07:06:52;;;;;;;6.63;4.80;;;20.00;66.40;;;;;;4950114;28;20524;-68
2023/05/21 07:09:20;;;;;;;5.33;4.47;;;20.00;66.50;;;;;;4947705;28;20960;-69
2023/05/21 07:11:51;;;;;;;5.90;5.30;;;20.00;66.40;;;;;;4956944;28;20934;-68
2023/05/21 07:14:21;;;;;;;6.17;5.57;;;20.00;66.10;;;;;;4939126;28;20468;-67
2023/05/21 07:16:51;;;;;;;7.27;5.80;;;20.00;66.20;;;;;;4948367;28;20952;-68
2023/05/21 07:19:19;;;;;;;6.40;4.63;;;20.00;66.10;;;;;;4955195;28;20450;-65
2023/05/21 07:21:49;;;;;;;5.40;4.90;;;20.00;66.10;;;;;;4961511;28;20432;-67
2023/05/21 07:24:18;;;;;;;4.60;4.13;;;20.00;66.20;;;;;;4944676;28;20486;-67
2023/05/21 07:26:46;;;;;;;4.60;4.20;;;20.00;66.30;;;;;;4958037;28;20551;-66
2023/05/21 07:29:15;;;;;;;6.13;5.63;;;20.00;66.30;;;;;;4943987;28;20842;-66
2023/05/21 07:31:45;;;;;;;5.43;4.50;;;20.00;66.30;;;;;;4951763;28;20477;-67
2023/05/21 07:34:13;;;;;;;4.00;3.60;;;20.00;66.40;;;;;;4944044;28;20480;-66
2023/05/21 07:36:42;;;;;;;5.80;5.07;;;20.00;66.40;;;;;;4947729;28;20897;-67
2023/05/21 07:39:11;;;;;;;5.20;4.70;;;20.00;66.40;;;;;;4948367;28;20959;-68
2023/05/21 07:41:41;;;;;;;5.30;4.77;;;20.00;66.40;;;;;;4955285;28;20519;-72
2023/05/21 07:44:10;;;;;;;5.17;4.17;;;20.00;66.20;;;;;;4952639;28;20468;-72
2023/05/21 07:46:42;;;;;;;5.50;4.90;;;20.00;66.30;;;;;;4947236;28;20480;-71
2023/05/21 07:49:15;;;;;;;4.43;4.03;;;20.00;66.60;;;;;;4944984;28;20508;-72
2023/05/21 07:51:46;;;;;;;4.53;3.67;;;20.00;66.50;;;;;;4963562;28;20538;-73
2023/05/21 07:54:15;;;;;;;4.80;3.80;;;20.00;66.50;;;;;;4949641;28;20467;-72
2023/05/21 07:56:45;;;;;;;4.50;4.10;;;20.00;66.60;;;;;;4958849;28;20545;-73
2023/05/21 07:59:26;;;;;;;4.13;3.80;;;20.00;66.50;;;;;;4961768;28;20456;-72
2023/05/21 08:01:55;;;;;;;4.63;4.23;;;20.00;66.50;;;;;;4947921;28;20441;-72
2023/05/21 08:04:26;;;;;;;4.47;4.07;;;20.00;66.40;;;;;;4945248;28;20561;-73
2023/05/21 08:06:55;;;;;;;4.20;3.80;;;20.00;66.40;;;;;;4959861;28;20863;-72
2023/05/21 08:09:24;;;;;;;4.20;3.50;;;20.00;66.30;;;;;;4942087;28;20576;-72
2023/05/21 08:11:53;;;;;;;4.13;3.67;;;20.00;66.50;;;;;;4948034;28;20489;-72
2023/05/21 08:14:21;;;;;;;4.60;4.07;;;20.00;66.50;;;;;;4944092;28;20499;-72
2023/05/21 08:16:50;;;;;;;4.80;4.03;;;20.00;66.50;;;;;;4953081;28;20447;-72
2023/05/21 08:19:19;;;;;;;6.20;4.83;;;20.00;66.60;;;;;;4953683;28;20522;-72
2023/05/21 08:21:49;;;;;;;4.20;3.70;;;20.00;66.60;;;;;;4957150;28;20459;-72
2023/05/21 08:24:21;;;;;;;5.13;4.63;;;20.00;66.60;;;;;;4963102;28;20765;-72
2023/05/21 08:26:50;;;;;;;5.17;4.67;;;20.00;66.60;;;;;;4947189;28;20648;-72
2023/05/21 08:29:19;;;;;;;4.80;4.30;;;20.00;66.60;;;;;;4947784;28;20448;-72
2023/05/21 08:31:48;;;;;;;5.07;4.27;;;20.00;66.60;;;;;;4951068;28;20490;-72
2023/05/21 08:34:17;;;;;;;4.20;3.90;;;20.10;66.80;;;;;;4947112;28;20980;-72
2023/05/21 08:36:55;;;;;;;4.77;4.17;;;20.10;66.70;;;;;;4964607;28;20471;-72
2023/05/21 08:39:43;;;;;;;5.00;4.50;;;20.10;66.60;;;;;;4946889;28;20914;-72
2023/05/21 08:42:19;;;;;;;4.77;4.37;;;20.10;66.70;;;;;;4954541;28;20882;-72
2023/05/21 08:45:06;;;;;;;4.20;3.80;;;20.10;66.70;;;;;;4946705;28;20468;-72
2023/05/21 08:47:36;;;;;;;5.33;4.47;;;20.10;66.70;;;;;;4941760;29;20452;-71
2023/05/21 08:50:09;;;;;;;5.13;4.73;;;20.10;66.70;;;;;;4931636;28;21191;-73
2023/05/21 08:52:39;;;;;;;4.60;4.20;;;20.10;66.60;;;;;;4931017;29;20507;-72
2023/05/21 08:55:09;;;;;;;4.97;4.47;;;20.10;66.60;;;;;;4945500;28;20578;-72
2023/05/21 08:57:42;;;;;;;4.87;4.47;;;20.10;66.70;;;;;;4954237;28;20540;-72
2023/05/21 09:00:14;;;;;;;5.30;4.80;;;20.10;66.70;;;;;;4946338;28;20525;-66
2023/05/21 09:02:45;;;;;;;4.50;4.03;;;20.10;66.80;;;;;;4956291;28;20975;-67
2023/05/21 09:05:15;;;;;;;5.10;4.47;;;20.10;66.80;;;;;;4942133;28;20481;-72
2023/05/21 09:07:50;;;;;;;6.43;5.00;;;20.10;66.70;;;;;;4947242;28;20940;-66
2023/05/21 09:10:37;;;;;;;4.53;4.13;;;20.10;66.80;;;;;;4939750;28;20512;-72
2023/05/21 09:13:06;;;;;;;4.53;4.10;;;20.10;66.80;;;;;;4944388;28;20460;-72
2023/05/21 09:15:36;;;;;;;5.57;5.07;;;20.10;66.90;;;;;;4938169;28;20475;-72
2023/05/21 09:18:05;;;;;;;5.53;5.03;;;20.10;66.90;;;;;;4947465;28;20447;-72
2023/05/21 09:20:49;;;;;;;5.00;4.50;;;20.10;66.90;;;;;;4938530;28;20471;-72
2023/05/21 09:23:20;;;;;;;4.53;4.13;;;20.10;66.90;;;;;;4945391;28;21055;-72
2023/05/21 09:25:50;;;;;;;4.97;4.37;;;20.10;67.00;;;;;;4942264;28;20508;-72
2023/05/21 09:28:29;;;;;;;4.10;3.73;;;20.10;67.00;;;;;;4945744;28;20514;-71
2023/05/21 09:31:03;;;;;;;5.03;4.53;;;20.10;67.00;;;;;;4955956;28;20452;-72
2023/05/21 09:33:32;;;;;;;5.30;4.77;;;20.10;67.00;;;;;;4969189;28;20883;-72
2023/05/21 09:36:01;;;;;;;4.90;4.40;;;20.10;67.00;;;;;;4938531;28;20865;-72
2023/05/21 09:38:34;;;;;;;4.30;4.00;;;20.10;67.10;;;;;;4954080;28;20560;-72
2023/05/21 09:41:05;;;;;;;4.47;4.07;;;20.10;67.00;;;;;;4947195;28;20526;-73
2023/05/21 09:43:34;;;;;;;4.50;4.10;;;20.10;67.10;;;;;;4944288;28;21051;-72
2023/05/21 09:46:03;;;;;;;5.50;4.40;;;20.10;67.30;;;;;;4950882;28;20519;-72
2023/05/21 09:48:35;;;;;;;4.97;4.13;;;20.10;67.20;;;;;;4946473;28;20458;-72
2023/05/21 09:51:16;;;;;;;5.80;5.27;;;20.10;67.20;;;;;;4944852;28;20527;-72
2023/05/21 09:53:50;;;;;;;5.20;4.63;;;20.10;67.30;;;;;;4947811;28;20984;-72
2023/05/21 09:56:23;;;;;;;5.07;4.50;;;20.10;67.30;;;;;;4950480;28;20436;-72
2023/05/21 09:58:54;;;;;;;4.60;4.20;;;20.10;67.40;;;;;;4952029;28;20491;-71
2023/05/21 10:01:24;;;;;;;4.33;3.93;;;20.10;67.30;;;;;;4947367;28;20458;-72
2023/05/21 10:03:56;;;;;;;4.70;4.30;;;20.10;67.20;;;;;;4956730;28;20471;-72
2023/05/21 10:06:26;;;;;;;5.80;5.30;;;20.10;67.20;;;;;;4948715;28;20808;-72
2023/05/21 10:08:57;;;;;;;5.97;5.37;;;20.10;67.40;;;;;;4959704;28;20574;-70
2023/05/21 10:11:30;;;;;;;5.60;5.10;;;20.10;67.40;;;;;;4949597;28;20452;-71
2023/05/21 10:14:04;;;;;;;5.43;4.97;;;20.10;67.50;;;;;;4946145;28;20988;-72
2023/05/21 10:16:34;;;;;;;5.70;5.20;;;20.10;67.50;;;;;;4946098;28;20443;-71
2023/05/21 10:19:04;;;;;;;5.30;4.80;;;20.10;67.90;;;;;;4941283;28;21021;-71
2023/05/21 10:21:33;;;;;;;5.80;4.93;;;20.10;67.40;;;;;;4954660;28;20877;-72
2023/05/21 10:24:05;;;;;;;5.70;5.20;;;20.10;67.40;;;;;;4951706;28;20910;-72
2023/05/21 10:26:34;;;;;;;6.00;5.40;;;20.10;67.40;;;;;;4947971;28;20452;-72
2023/05/21 10:29:03;;;;;;;5.23;4.73;;;20.10;67.50;;;;;;4945120;28;20486;-72
2023/05/21 10:31:32;;;;;;;5.67;4.50;;;20.10;67.40;;;;;;4949754;28;20450;-72
2023/05/21 10:34:02;;;;;;;5.33;4.83;;;20.10;67.50;;;;;;4941155;28;20487;-72
2023/05/21 10:36:31;;;;;;;5.90;5.30;;;20.10;67.50;;;;;;4940224;28;20448;-71
2023/05/21 10:39:01;;;;;;;5.53;5.03;;;20.20;67.60;;;;;;4948918;28;20491;-71
2023/05/21 10:41:41;;;;;;;5.60;5.10;;;20.20;67.70;;;;;;4950159;28;20436;-72
2023/05/21 10:44:20;;;;;;;5.77;5.27;;;20.20;67.60;;;;;;4950966;28;20472;-72
2023/05/21 10:47:28;;;;;;;5.80;5.30;;;20.10;67.60;;;;;;4946528;28;21036;-71
2023/05/21 10:50:18;;;;;;;7.47;6.73;;;20.20;67.70;;;;;;4938224;28;20472;-72
2023/05/21 10:53:00;;;;;;;6.27;5.77;;;20.10;67.70;;;;;;4943767;28;20484;-71
2023/05/21 10:55:47;;;;;;;5.53;5.00;;;20.10;67.70;;;;;;4954359;28;20517;-72
2023/05/21 10:58:48;;;;;;;5.83;5.33;;;20.10;67.80;;;;;;4948766;28;20457;-72
2023/05/21 11:01:18;;;;;;;8.00;6.40;;;20.20;67.70;;;;;;4948170;28;20558;-71
2023/05/21 11:03:47;;;;;;;6.00;5.40;;;20.20;67.90;;;;;;4956505;28;20475;-71
2023/05/21 11:06:24;;;;;;;6.57;6.00;;;20.20;68.70;;;;;;4957170;28;20479;-71
2023/05/21 11:08:53;;;;;;;7.30;6.70;;;20.20;68.00;;;;;;4953698;28;20554;-71
2023/05/21 11:11:43;;;;;;;6.50;5.83;;;20.20;68.00;;;;;;4941507;28;20870;-72
2023/05/21 11:14:38;;;;;;;7.00;6.30;;;20.20;68.00;;;;;;4945442;28;20514;-71
2023/05/21 11:17:16;;;;;;;7.67;6.97;;;20.20;68.20;;;;;;4938653;28;20446;-72
2023/05/21 11:19:46;;;;;;;7.93;6.77;;;20.20;68.30;;;;;;4931536;28;21383;-72
2023/05/21 11:22:22;;;;;;;6.23;5.63;;;20.20;68.30;;;;;;4945605;28;20436;-71
2023/05/21 11:24:51;;;;;;;7.40;6.70;;;20.20;68.20;;;;;;4947633;28;20475;-72
2023/05/21 11:27:34;;;;;;;7.37;6.70;;;20.20;68.20;;;;;;4953419;28;20453;-72
2023/05/21 11:30:08;;;;;;;7.33;6.63;;;20.20;68.40;;;;;;4935286;28;20485;-71
2023/05/21 11:32:38;;;;;;;7.43;6.73;;;20.20;68.40;;;;;;4947523;28;20439;-71
2023/05/21 11:35:08;;;;;;;7.13;6.53;;;20.20;68.50;;;;;;4937318;28;20482;-71
2023/05/21 11:37:40;;;;;;;7.13;6.50;;;20.20;68.40;;;;;;4939549;28;20444;-72
2023/05/21 11:40:24;;;;;;;7.27;6.50;;;20.20;68.40;;;;;;4946664;28;20570;-72
2023/05/21 11:42:54;;;;;;;6.93;6.33;;;20.20;68.40;;;;;;4931090;28;20483;-72
2023/05/21 11:45:30;;;;;;;7.37;5.73;;;20.20;68.50;;;;;;4961230;28;20751;-72
2023/05/21 11:48:00;;;;;;;7.87;7.17;;;20.20;68.40;;;;;;4947821;28;20447;-71
2023/05/21 11:50:32;;;;;;;6.97;6.33;;;20.30;68.60;;;;;;4942086;28;20579;-72
2023/05/21 11:53:01;;;;;;;6.80;6.20;;;20.20;68.60;;;;;;4946481;28;20456;-72
2023/05/21 11:55:29;;;;;;;7.70;7.00;;;20.20;68.70;;;;;;4945524;28;20877;-71
2023/05/21 11:57:59;;;;;;;6.90;6.20;;;20.30;68.80;;;;;;4942235;28;20448;-72
2023/05/21 12:00:28;;;;;;;7.10;6.40;;;20.30;68.80;;;;;;4948086;28;20578;-72
2023/05/21 12:02:58;;;;;;;7.40;6.70;;;20.30;68.90;;;;;;4939897;28;20488;-72
2023/05/21 12:05:26;;;;;;;8.17;7.37;;;20.30;69.00;;;;;;4941948;28;20519;-71
2023/05/21 12:07:55;;;;;;;6.83;6.20;;;20.30;69.00;;;;;;4943262;28;20440;-71
2023/05/21 12:10:24;;;;;;;7.20;6.50;;;20.30;69.00;;;;;;4951444;28;21459;-72
2023/05/21 12:12:52;;;;;;;6.70;6.10;;;20.30;68.90;;;;;;4941032;28;20455;-71
2023/05/21 12:15:26;;;;;;;6.40;5.90;;;20.30;69.00;;;;;;4960088;28;20492;-71
2023/05/21 12:17:56;;;;;;;8.67;6.77;;;20.30;69.10;;;;;;4951713;28;20486;-72
2023/05/21 12:20:28;;;;;;;7.63;6.90;;;20.30;69.10;;;;;;4947149;28;20485;-73
2023/05/21 12:22:58;;;;;;;7.67;7.00;;;20.30;69.10;;;;;;4951599;28;20536;-72
2023/05/21 12:25:28;;;;;;;6.67;6.07;;;20.30;69.20;;;;;;4940473;28;20480;-71
2023/05/21 12:27:57;;;;;;;8.10;7.30;;;20.30;69.10;;;;;;4956945;28;20456;-71
2023/05/21 12:30:26;;;;;;;7.17;6.47;;;20.30;69.10;;;;;;4961347;28;20468;-72
2023/05/21 12:33:01;;;;;;;8.77;7.87;;;20.30;69.10;;;;;;4954570;28;21521;-71
2023/05/21 12:35:31;;;;;;;7.63;6.50;;;20.30;69.20;;;;;;4958628;28;20483;-71
2023/05/21 12:38:01;;;;;;;7.77;6.97;;;20.40;69.30;;;;;;4951297;28;20440;-72
2023/05/21 12:40:37;;;;;;;6.60;5.90;;;20.40;69.40;;;;;;4946181;28;20909;-72
2023/05/21 12:43:07;;;;;;;7.60;6.90;;;20.40;69.50;;;;;;4952093;28;20451;-72
2023/05/21 12:45:38;;;;;;;8.23;7.53;;;20.40;69.50;;;;;;4939443;28;21022;-72
2023/05/21 12:48:08;;;;;;;7.30;6.60;;;20.40;69.50;;;;;;4948372;28;20456;-71
2023/05/21 12:50:40;;;;;;;7.60;6.77;;;20.40;69.50;;;;;;4931174;28;20581;-73
2023/05/21 12:53:09;;;;;;;7.00;6.40;;;20.40;69.50;;;;;;4947051;28;20522;-71
2023/05/21 12:55:39;;;;;;;8.00;7.20;;;20.40;69.50;;;;;;4946319;28;20920;-72
2023/05/21 12:58:08;;;;;;;7.20;6.50;;;20.40;69.50;;;;;;4962119;28;20444;-71
2023/05/21 13:00:36;;;;;;;7.30;6.60;;;20.40;69.40;;;;;;4946233;28;20482;-72
2023/05/21 13:03:06;;;;;;;7.83;7.13;;;20.40;69.50;;;;;;4946736;28;20945;-72
2023/05/21 13:05:39;;;;;;;8.60;7.77;;;20.40;69.50;;;;;;4936895;28;20496;-72
2023/05/21 13:08:09;;;;;;;7.60;6.80;;;20.40;69.50;;;;;;4947556;28;20461;-72